Time;durP1;ratioP1;P1;durP2;ratioP2;P2;SDS_P1;SDS_P2;PMS_P1;PMS_P2;Temp;Humidity;BMP_temperature;BMP_pressure;BME280_temperature;BME280_humidity;BME280_pressure;Samples;Min_cycle;Max_cycle;Signal;HPM_P1;HPM_P2
2023/10/03 00:01:52;;;;;;;7.40;5.80;;;17.00;99.90;;;;;;5104741;28;20455;-81
2023/10/03 00:04:19;;;;;;;8.53;5.40;;;17.00;99.90;;;;;;5104864;28;20440;-81
2023/10/03 00:06:46;;;;;;;17.97;6.23;;;16.90;99.90;;;;;;5106064;28;20392;-81
2023/10/03 00:09:12;;;;;;;7.27;5.53;;;16.90;99.90;;;;;;5105836;28;20419;-81
2023/10/03 00:11:38;;;;;;;7.63;5.30;;;16.90;99.90;;;;;;5104694;28;20453;-81
2023/10/03 00:14:07;;;;;;;7.90;5.80;;;16.80;99.90;;;;;;5104260;28;20793;-81
2023/10/03 00:16:33;;;;;;;11.50;6.57;;;16.80;99.90;;;;;;5106288;28;20552;-81
2023/10/03 00:18:59;;;;;;;10.73;6.10;;;16.80;99.90;;;;;;5104183;28;20436;-81
2023/10/03 00:21:25;;;;;;;11.73;6.10;;;16.70;99.90;;;;;;5104882;28;20995;-80
2023/10/03 00:23:51;;;;;;;8.83;7.30;;;16.70;99.90;;;;;;5109449;28;21036;-81
2023/10/03 00:26:17;;;;;;;12.40;7.03;;;16.70;99.90;;;;;;5109584;28;20304;-81
2023/10/03 00:28:44;;;;;;;14.37;7.77;;;16.70;99.90;;;;;;5109765;28;20175;-81
2023/10/03 00:31:13;;;;;;;11.70;6.53;;;16.60;99.90;;;;;;5108152;28;21060;-81
2023/10/03 00:33:41;;;;;;;17.40;8.77;;;16.60;99.90;;;;;;5107958;28;20719;-81
2023/10/03 00:36:24;;;;;;;12.63;9.07;;;16.60;99.90;;;;;;5109311;28;20424;-80
2023/10/03 00:38:51;;;;;;;12.93;7.50;;;16.60;99.90;;;;;;5107352;28;20867;-81
2023/10/03 00:41:19;;;;;;;13.27;7.77;;;16.50;99.90;;;;;;5109353;28;20499;-81
2023/10/03 00:44:01;;;;;;;9.20;6.60;;;16.50;99.90;;;;;;5107938;28;20436;-81
2023/10/03 00:46:29;;;;;;;15.87;8.00;;;16.50;99.90;;;;;;5107788;28;20791;-81
2023/10/03 00:48:56;;;;;;;15.80;7.97;;;16.50;99.90;;;;;;5108522;28;20454;-80
2023/10/03 00:51:23;;;;;;;12.97;8.50;;;16.50;99.90;;;;;;5109181;28;20496;-81
2023/10/03 00:53:51;;;;;;;15.17;8.33;;;16.50;99.90;;;;;;5108700;28;20423;-81
2023/10/03 00:56:19;;;;;;;13.70;7.10;;;16.50;99.90;;;;;;5107694;28;20436;-81
2023/10/03 00:58:44;;;;;;;16.57;7.57;;;16.50;99.90;;;;;;5108980;28;20989;-81
2023/10/03 01:01:11;;;;;;;13.20;7.60;;;16.50;99.90;;;;;;5108345;28;20455;-81
2023/10/03 01:03:38;;;;;;;12.47;7.83;;;16.50;99.90;;;;;;5109111;28;20540;-81
2023/10/03 01:06:09;;;;;;;12.10;7.27;;;16.40;99.90;;;;;;5106909;28;21099;-81
2023/10/03 01:08:41;;;;;;;13.90;7.83;;;16.40;99.90;;;;;;5109016;28;20420;-81
2023/10/03 01:11:18;;;;;;;12.30;8.17;;;16.40;99.90;;;;;;5106958;28;20428;-81
2023/10/03 01:13:54;;;;;;;15.50;8.60;;;16.30;99.90;;;;;;5108896;28;20412;-81
2023/10/03 01:16:27;;;;;;;19.10;8.20;;;16.40;99.90;;;;;;5108706;28;20415;-81
2023/10/03 01:18:53;;;;;;;12.40;7.87;;;16.30;99.90;;;;;;5108212;28;20447;-81
2023/10/03 01:21:21;;;;;;;11.90;7.83;;;16.30;99.90;;;;;;5107461;28;20849;-81
2023/10/03 01:23:47;;;;;;;12.40;7.07;;;16.30;99.90;;;;;;5108306;28;20456;-81
2023/10/03 01:26:14;;;;;;;10.30;7.50;;;16.30;99.90;;;;;;5108365;28;20424;-81
2023/10/03 01:28:40;;;;;;;12.27;8.50;;;16.30;99.90;;;;;;5106903;28;20740;-81
2023/10/03 01:31:06;;;;;;;11.37;7.40;;;16.30;99.90;;;;;;5105895;28;21004;-81
2023/10/03 01:33:32;;;;;;;11.47;8.20;;;16.30;99.90;;;;;;5107056;28;20423;-81
2023/10/03 01:36:02;;;;;;;11.20;6.77;;;16.20;99.90;;;;;;5108243;28;20804;-81
2023/10/03 01:38:28;;;;;;;10.90;7.50;;;16.20;99.90;;;;;;5107472;28;20459;-81
2023/10/03 01:41:00;;;;;;;13.73;7.60;;;16.20;99.90;;;;;;5106257;28;20529;-81
2023/10/03 01:43:26;;;;;;;12.83;7.63;;;16.20;99.90;;;;;;5106674;28;20971;-81
2023/10/03 01:45:53;;;;;;;13.03;8.53;;;16.20;99.90;;;;;;5107551;28;20550;-81
2023/10/03 01:48:20;;;;;;;14.67;8.37;;;16.10;99.90;;;;;;5108037;28;20502;-81
2023/10/03 01:50:47;;;;;;;14.23;8.40;;;16.10;99.90;;;;;;5107899;28;20436;-81
2023/10/03 01:53:13;;;;;;;11.30;7.90;;;16.10;99.90;;;;;;5107519;28;20486;-81
2023/10/03 01:55:38;;;;;;;13.07;8.63;;;16.10;99.90;;;;;;5107690;28;20852;-80
2023/10/03 01:58:05;;;;;;;13.70;7.87;;;16.10;99.90;;;;;;5106027;28;20186;-81
2023/10/03 02:00:32;;;;;;;12.67;8.17;;;16.00;99.90;;;;;;5106181;28;20434;-81
2023/10/03 02:03:04;;;;;;;15.63;9.63;;;16.00;99.90;;;;;;5107523;28;20416;-81
2023/10/03 02:05:33;;;;;;;17.53;9.40;;;16.00;99.90;;;;;;5107051;28;20443;-81
2023/10/03 02:08:07;;;;;;;12.30;8.47;;;16.00;99.90;;;;;;5106286;28;20436;-81
2023/10/03 02:10:34;;;;;;;18.10;10.40;;;16.00;99.90;;;;;;5106333;28;20843;-80
2023/10/03 02:13:01;;;;;;;16.33;9.87;;;16.00;99.90;;;;;;5107127;28;20468;-80
2023/10/03 02:15:26;;;;;;;13.83;8.47;;;16.00;99.90;;;;;;5107213;28;20431;-80
2023/10/03 02:17:54;;;;;;;12.27;9.80;;;16.10;99.90;;;;;;5105788;28;20420;-82
2023/10/03 02:20:21;;;;;;;13.90;9.80;;;16.00;99.90;;;;;;5107060;28;20259;-81
2023/10/03 02:22:54;;;;;;;17.83;9.73;;;16.00;99.90;;;;;;5107175;28;20930;-81
2023/10/03 02:25:27;;;;;;;14.73;8.57;;;16.00;99.90;;;;;;5107430;28;20447;-81
2023/10/03 02:27:55;;;;;;;13.40;9.30;;;16.00;99.90;;;;;;5106767;28;20551;-81
2023/10/03 02:30:25;;;;;;;13.33;8.23;;;16.00;99.90;;;;;;5107054;28;20512;-81
2023/10/03 02:32:56;;;;;;;11.53;8.30;;;16.00;99.90;;;;;;5104679;28;20690;-81
2023/10/03 02:35:24;;;;;;;13.00;8.63;;;16.00;99.90;;;;;;5107170;28;21020;-81
2023/10/03 02:37:52;;;;;;;11.67;8.40;;;16.00;99.90;;;;;;5104701;28;20499;-81
2023/10/03 02:40:22;;;;;;;16.53;9.57;;;16.00;99.90;;;;;;5106467;28;20445;-81
2023/10/03 02:42:51;;;;;;;18.60;12.60;;;16.00;99.90;;;;;;5107028;28;20420;-81
2023/10/03 02:45:22;;;;;;;16.50;10.50;;;16.00;99.90;;;;;;5105337;28;20501;-81
2023/10/03 02:47:48;;;;;;;13.00;9.63;;;15.90;99.90;;;;;;5106935;28;20539;-81
2023/10/03 02:50:15;;;;;;;14.30;9.47;;;15.90;99.90;;;;;;5104899;28;20432;-81
2023/10/03 02:52:41;;;;;;;12.77;10.30;;;15.80;99.90;;;;;;5106657;28;20411;-81
2023/10/03 02:55:08;;;;;;;17.57;11.73;;;15.80;99.90;;;;;;5106487;28;20519;-81
2023/10/03 02:57:38;;;;;;;17.20;11.70;;;15.80;99.90;;;;;;5105107;28;20431;-81
2023/10/03 03:00:12;;;;;;;17.40;11.17;;;15.80;99.90;;;;;;5104931;28;20812;-81
2023/10/03 03:02:39;;;;;;;15.00;11.10;;;15.70;99.90;;;;;;5106807;28;20434;-81
2023/10/03 03:05:05;;;;;;;14.53;10.33;;;15.70;99.90;;;;;;5106195;28;20506;-81
2023/10/03 03:07:32;;;;;;;12.43;9.80;;;15.70;99.90;;;;;;5106536;28;20396;-81
2023/10/03 03:09:59;;;;;;;14.90;10.97;;;15.60;99.90;;;;;;5106384;28;20436;-81
2023/10/03 03:12:25;;;;;;;14.60;9.80;;;15.70;99.90;;;;;;5104925;28;20624;-81
2023/10/03 03:14:52;;;;;;;13.80;10.00;;;15.70;99.90;;;;;;5106565;28;20463;-81
2023/10/03 03:17:20;;;;;;;16.20;10.50;;;15.80;99.90;;;;;;5105122;28;21003;-81
2023/10/03 03:19:46;;;;;;;20.63;10.60;;;15.90;99.90;;;;;;5105051;28;20450;-81
2023/10/03 03:22:15;;;;;;;19.10;11.33;;;16.00;99.90;;;;;;5104788;28;20471;-81
2023/10/03 03:24:41;;;;;;;22.13;12.30;;;16.10;99.90;;;;;;5104776;28;20516;-81
2023/10/03 03:27:12;;;;;;;13.57;10.60;;;16.10;99.90;;;;;;5106051;28;20415;-81
2023/10/03 03:29:54;;;;;;;16.07;10.13;;;16.20;99.90;;;;;;5104855;28;21069;-81
2023/10/03 03:32:19;;;;;;;21.27;10.43;;;16.20;99.90;;;;;;5105412;28;20491;-81
2023/10/03 03:34:45;;;;;;;17.33;11.37;;;16.20;99.90;;;;;;5104929;28;21059;-80
2023/10/03 03:37:21;;;;;;;12.80;10.30;;;16.30;99.90;;;;;;5104821;28;20176;-81
2023/10/03 03:39:54;;;;;;;18.07;10.87;;;16.30;99.90;;;;;;5105334;28;20231;-81
2023/10/03 03:42:22;;;;;;;15.70;11.40;;;16.40;99.90;;;;;;5106234;28;20536;-81
2023/10/03 03:44:49;;;;;;;16.27;11.33;;;16.40;99.90;;;;;;5106260;28;20450;-81
2023/10/03 03:47:18;;;;;;;19.30;11.47;;;16.40;99.90;;;;;;5104865;28;20446;-81
2023/10/03 03:49:44;;;;;;;12.10;9.53;;;16.40;99.90;;;;;;5104224;28;20452;-81
2023/10/03 03:52:12;;;;;;;14.63;9.60;;;16.30;99.90;;;;;;5106037;28;20777;-81
2023/10/03 03:54:39;;;;;;;18.77;10.77;;;16.20;99.90;;;;;;5104712;28;20624;-81
2023/10/03 03:57:05;;;;;;;13.70;10.70;;;16.10;99.90;;;;;;5105414;28;20412;-83
2023/10/03 03:59:32;;;;;;;14.90;10.40;;;16.10;99.90;;;;;;5109954;28;20802;-80
2023/10/03 04:02:00;;;;;;;14.30;9.20;;;16.00;99.90;;;;;;5108273;28;20459;-81
2023/10/03 04:04:25;;;;;;;14.67;10.17;;;16.00;99.90;;;;;;5107898;28;20948;-83
2023/10/03 04:06:52;;;;;;;16.53;9.80;;;16.00;99.90;;;;;;5109934;28;20456;-80
2023/10/03 04:09:18;;;;;;;13.37;9.60;;;15.90;99.90;;;;;;5108053;28;20195;-81
2023/10/03 04:11:43;;;;;;;12.27;9.60;;;15.90;99.90;;;;;;5108593;28;20420;-81
2023/10/03 04:14:09;;;;;;;17.67;10.30;;;15.90;99.90;;;;;;5107861;28;20476;-81
2023/10/03 04:16:39;;;;;;;10.80;9.13;;;15.90;99.90;;;;;;5109875;28;20210;-81
2023/10/03 04:19:05;;;;;;;15.53;9.53;;;15.80;99.90;;;;;;5109278;28;20379;-81
2023/10/03 04:21:32;;;;;;;12.83;9.47;;;15.80;99.90;;;;;;5097861;28;20522;-81
2023/10/03 04:23:59;;;;;;;12.83;9.20;;;15.80;99.90;;;;;;5095025;28;20433;-81
2023/10/03 04:26:25;;;;;;;13.83;9.53;;;15.80;99.90;;;;;;5094313;28;20428;-82
2023/10/03 04:28:51;;;;;;;15.43;9.90;;;15.80;99.90;;;;;;5092483;28;20424;-83
2023/10/03 04:31:17;;;;;;;13.30;9.80;;;15.80;99.90;;;;;;5088803;28;20443;-85
2023/10/03 04:33:45;;;;;;;20.57;10.87;;;15.80;99.90;;;;;;5086126;28;20425;-83
2023/10/03 04:36:11;;;;;;;13.57;9.80;;;15.80;99.90;;;;;;5087046;28;20721;-82
2023/10/03 04:38:37;;;;;;;15.90;9.80;;;15.70;99.90;;;;;;5087108;28;20527;-82
2023/10/03 04:41:05;;;;;;;14.07;9.33;;;15.70;99.90;;;;;;5086568;28;20504;-82
2023/10/03 04:43:31;;;;;;;15.90;9.00;;;15.70;99.90;;;;;;5088801;28;20180;-85
2023/10/03 04:45:57;;;;;;;16.00;10.07;;;15.60;99.90;;;;;;5086778;28;20599;-82
2023/10/03 04:48:23;;;;;;;14.73;9.33;;;15.60;99.90;;;;;;5088488;28;20188;-86
2023/10/03 04:50:49;;;;;;;15.37;10.47;;;15.50;99.90;;;;;;5103605;28;20195;-86
2023/10/03 04:53:15;;;;;;;11.30;9.20;;;15.50;99.90;;;;;;5107044;28;20451;-86
2023/10/03 04:55:44;;;;;;;12.80;9.77;;;15.40;99.90;;;;;;5108789;28;20294;-86
2023/10/03 04:58:10;;;;;;;13.57;9.37;;;15.40;99.90;;;;;;5102695;28;20204;-83
2023/10/03 05:00:36;;;;;;;15.20;9.70;;;15.40;99.90;;;;;;5087695;28;20430;-83
2023/10/03 05:03:04;;;;;;;14.50;10.77;;;15.40;99.90;;;;;;5086784;28;20424;-85
2023/10/03 05:05:30;;;;;;;16.23;11.27;;;15.40;99.90;;;;;;5102570;28;20264;-88
2023/10/03 05:07:56;;;;;;;16.00;10.90;;;15.50;99.90;;;;;;5103933;28;20854;-85
2023/10/03 05:10:23;;;;;;;15.13;10.70;;;15.50;99.90;;;;;;5088708;28;20192;-84
2023/10/03 05:12:51;;;;;;;21.67;12.63;;;15.50;99.90;;;;;;5086580;28;20428;-84
2023/10/03 05:15:17;;;;;;;15.30;12.10;;;15.50;99.90;;;;;;5086401;28;20460;-83
2023/10/03 05:17:48;;;;;;;23.63;12.10;;;15.50;99.90;;;;;;5089015;28;20412;-80
2023/10/03 05:20:20;;;;;;;15.30;11.20;;;15.50;99.90;;;;;;5086512;28;20417;-81
2023/10/03 05:22:46;;;;;;;16.13;11.30;;;15.50;99.90;;;;;;5096045;28;20444;-84
2023/10/03 05:25:17;;;;;;;18.20;12.13;;;15.60;99.90;;;;;;5096302;28;21039;-80
2023/10/03 05:27:43;;;;;;;24.43;14.40;;;15.60;99.90;;;;;;5096167;28;20432;-84
2023/10/03 05:30:14;;;;;;;16.00;11.60;;;15.60;99.90;;;;;;5096249;28;20441;-80
2023/10/03 05:32:42;;;;;;;14.60;12.47;;;15.60;99.90;;;;;;5100827;28;20459;-84
2023/10/03 05:35:08;;;;;;;17.60;13.00;;;15.60;99.90;;;;;;5091926;28;20460;-80
2023/10/03 05:37:34;;;;;;;17.87;12.63;;;15.60;99.90;;;;;;5097362;28;20684;-82
2023/10/03 05:40:18;;;;;;;15.53;13.77;;;15.70;99.90;;;;;;5101360;28;20854;-80
2023/10/03 05:42:45;;;;;;;20.47;14.57;;;15.70;99.90;;;;;;5100393;28;20713;-80
2023/10/03 05:45:14;;;;;;;26.10;15.80;;;15.80;99.90;;;;;;5087190;28;21000;-84
2023/10/03 05:47:47;;;;;;;22.43;13.80;;;15.80;99.90;;;;;;5086817;28;20416;-80
2023/10/03 05:50:15;;;;;;;19.43;14.33;;;15.80;99.90;;;;;;5086346;28;20535;-81
2023/10/03 05:52:43;;;;;;;21.17;14.60;;;15.90;99.90;;;;;;5094769;27;20523;-80
2023/10/03 05:55:09;;;;;;;20.37;14.30;;;15.90;99.90;;;;;;5093469;28;20735;-84
2023/10/03 05:57:37;;;;;;;20.40;12.90;;;16.00;99.90;;;;;;5093574;28;20607;-80
2023/10/03 06:00:08;;;;;;;19.60;14.80;;;16.10;99.90;;;;;;5088083;28;20459;-81
2023/10/03 06:02:34;;;;;;;17.77;13.37;;;16.10;99.90;;;;;;5086682;28;20425;-78
2023/10/03 06:05:00;;;;;;;18.47;13.13;;;16.20;99.90;;;;;;5086750;28;20444;-80
2023/10/03 06:07:27;;;;;;;18.23;12.27;;;16.20;99.90;;;;;;5085286;28;20421;-78
2023/10/03 06:09:55;;;;;;;17.30;12.10;;;16.30;99.90;;;;;;5088806;28;20204;-77
2023/10/03 06:12:23;;;;;;;19.70;12.60;;;16.40;99.90;;;;;;5093491;28;20994;-77
2023/10/03 06:14:49;;;;;;;21.37;13.73;;;16.40;99.90;;;;;;5086240;28;20526;-76
2023/10/03 06:17:17;;;;;;;16.70;12.17;;;16.40;99.90;;;;;;5085054;28;20425;-78
2023/10/03 06:19:43;;;;;;;26.10;12.50;;;16.50;99.90;;;;;;5094855;28;21147;-80
2023/10/03 06:22:11;;;;;;;16.60;12.40;;;16.60;99.90;;;;;;5095839;28;20461;-76
2023/10/03 06:24:36;;;;;;;22.60;12.40;;;16.60;99.90;;;;;;5092436;28;20464;-80
2023/10/03 06:27:05;;;;;;;14.93;11.03;;;16.70;99.90;;;;;;5099094;28;20814;-77
2023/10/03 06:29:30;;;;;;;15.60;11.23;;;16.80;99.90;;;;;;5090928;28;20576;-79
2023/10/03 06:31:56;;;;;;;15.90;10.83;;;16.90;99.90;;;;;;5084467;28;20412;-80
2023/10/03 06:34:25;;;;;;;15.43;11.43;;;16.90;99.90;;;;;;5089162;28;20720;-80
2023/10/03 06:36:50;;;;;;;15.90;12.03;;;17.00;99.90;;;;;;5086981;28;20181;-77
2023/10/03 06:39:16;;;;;;;17.10;11.47;;;17.00;99.90;;;;;;5081675;28;20472;-80
2023/10/03 06:41:42;;;;;;;17.20;12.30;;;17.10;99.90;;;;;;5083345;28;20305;-76
2023/10/03 06:44:07;;;;;;;26.40;11.83;;;17.10;99.90;;;;;;5088644;28;20409;-77
2023/10/03 06:46:34;;;;;;;16.17;10.83;;;17.20;99.90;;;;;;5089091;28;20238;-80
2023/10/03 06:49:01;;;;;;;14.47;10.90;;;17.30;99.90;;;;;;5087445;28;20180;-80
2023/10/03 06:51:26;;;;;;;22.07;9.60;;;17.40;99.90;;;;;;5096524;27;20586;-80
2023/10/03 06:53:52;;;;;;;15.90;10.37;;;17.50;99.90;;;;;;5089623;28;20534;-80
2023/10/03 06:56:19;;;;;;;115.97;52.10;;;17.50;99.90;;;;;;5088591;28;20230;-77
2023/10/03 06:58:46;;;;;;;15.07;10.30;;;17.60;99.90;;;;;;5086725;28;20657;-76
2023/10/03 07:01:12;;;;;;;14.93;9.90;;;17.70;99.90;;;;;;5096335;28;21012;-80
2023/10/03 07:03:40;;;;;;;15.40;10.60;;;17.80;99.90;;;;;;5089257;28;20424;-77
2023/10/03 07:06:07;;;;;;;12.17;9.20;;;17.90;99.90;;;;;;5086228;27;20743;-80
2023/10/03 07:08:37;;;;;;;16.57;11.13;;;18.00;99.90;;;;;;5091817;28;20434;-76
2023/10/03 07:11:10;;;;;;;13.17;8.93;;;18.10;99.90;;;;;;5091873;28;20956;-81
2023/10/03 07:13:36;;;;;;;13.43;9.53;;;18.20;99.90;;;;;;5092451;28;21028;-77
2023/10/03 07:16:02;;;;;;;9.07;8.07;;;18.30;99.90;;;;;;5093624;28;20949;-77
2023/10/03 07:18:28;;;;;;;13.70;8.20;;;18.40;99.90;;;;;;5090626;28;20436;-79
2023/10/03 07:20:55;;;;;;;15.80;9.00;;;18.50;99.90;;;;;;5089744;28;20397;-80
2023/10/03 07:23:21;;;;;;;9.33;7.40;;;18.60;99.90;;;;;;5088978;28;20289;-81
2023/10/03 07:25:48;;;;;;;11.33;8.43;;;18.70;99.90;;;;;;5093446;28;20538;-80
2023/10/03 07:28:14;;;;;;;12.60;8.00;;;18.80;99.90;;;;;;5091416;28;20428;-80
2023/10/03 07:30:41;;;;;;;11.70;7.57;;;18.80;99.90;;;;;;5085386;28;20910;-79
2023/10/03 07:33:08;;;;;;;15.13;8.50;;;18.90;99.90;;;;;;5097266;28;20920;-77
2023/10/03 07:35:37;;;;;;;13.73;7.70;;;19.00;99.90;;;;;;5093820;28;20545;-80
2023/10/03 07:38:03;;;;;;;12.73;7.23;;;19.20;99.90;;;;;;5093167;28;20832;-77
2023/10/03 07:40:29;;;;;;;9.30;6.50;;;19.30;99.90;;;;;;5084691;28;20458;-77
2023/10/03 07:42:55;;;;;;;11.00;7.20;;;19.50;99.90;;;;;;5090734;28;20433;-77
2023/10/03 07:45:21;;;;;;;12.37;7.67;;;19.60;99.90;;;;;;5087287;28;20443;-78
2023/10/03 07:47:46;;;;;;;12.20;6.70;;;19.80;99.90;;;;;;5084653;28;20259;-81
2023/10/03 07:50:13;;;;;;;9.60;6.57;;;19.90;99.90;;;;;;5091308;28;20519;-81
2023/10/03 07:52:41;;;;;;;11.40;8.27;;;20.10;99.90;;;;;;5095580;28;20178;-80
2023/10/03 07:55:07;;;;;;;12.50;6.60;;;20.30;99.90;;;;;;5091398;28;20439;-81
2023/10/03 07:57:33;;;;;;;7.30;5.50;;;20.70;99.90;;;;;;5094051;28;20427;-81
2023/10/03 07:59:59;;;;;;;12.30;6.07;;;21.30;99.90;;;;;;5096747;28;20894;-76
2023/10/03 08:02:32;;;;;;;9.43;6.87;;;21.90;99.90;;;;;;5091399;28;20683;-81
2023/10/03 08:05:00;;;;;;;6.90;5.17;;;22.60;99.90;;;;;;5086528;28;20449;-77
2023/10/03 08:07:27;;;;;;;8.17;5.40;;;23.30;99.90;;;;;;5091464;28;20424;-81
2023/10/03 08:09:54;;;;;;;8.20;5.30;;;24.10;99.90;;;;;;5083853;28;21189;-77
2023/10/03 08:12:25;;;;;;;9.23;5.53;;;24.90;99.90;;;;;;5083424;28;20509;-77
2023/10/03 08:14:53;;;;;;;9.53;4.83;;;25.60;99.90;;;;;;5091967;28;20475;-77
2023/10/03 08:17:30;;;;;;;7.07;4.70;;;26.30;99.60;;;;;;5090452;28;20420;-76
2023/10/03 08:19:56;;;;;;;7.83;5.77;;;27.00;96.80;;;;;;5091793;28;21048;-76
2023/10/03 08:22:22;;;;;;;6.47;4.50;;;27.50;96.20;;;;;;5103244;28;20501;-77
2023/10/03 08:24:48;;;;;;;6.70;4.90;;;27.90;94.90;;;;;;5096011;28;20247;-80
2023/10/03 08:27:21;;;;;;;7.33;3.70;;;28.30;93.50;;;;;;5093436;28;20315;-77
2023/10/03 08:29:57;;;;;;;7.53;4.30;;;28.40;92.70;;;;;;5087305;28;20206;-77
2023/10/03 08:32:25;;;;;;;8.20;4.63;;;28.60;91.80;;;;;;5093046;28;20407;-76
2023/10/03 08:34:54;;;;;;;10.47;5.00;;;28.80;91.90;;;;;;5098898;28;20564;-77
2023/10/03 08:37:22;;;;;;;5.70;3.80;;;29.20;92.20;;;;;;5086868;28;20414;-77
2023/10/03 08:39:49;;;;;;;5.70;3.77;;;29.70;91.00;;;;;;5087575;28;20554;-76
2023/10/03 08:42:34;;;;;;;6.03;3.80;;;30.00;90.60;;;;;;5092745;28;20613;-76
2023/10/03 08:45:22;;;;;;;24.30;14.77;;;30.10;90.00;;;;;;5094551;28;20539;-80
2023/10/03 08:47:50;;;;;;;6.30;4.70;;;29.90;88.10;;;;;;5088887;28;20448;-80
2023/10/03 08:50:33;;;;;;;5.53;3.83;;;29.30;88.60;;;;;;5089803;28;20480;-76
2023/10/03 08:53:12;;;;;;;5.70;3.77;;;28.40;88.20;;;;;;5088737;28;20435;-77
2023/10/03 08:55:44;;;;;;;6.63;4.57;;;27.50;89.50;;;;;;5091689;28;20467;-80
2023/10/03 08:58:14;;;;;;;5.63;3.90;;;26.90;90.00;;;;;;5085024;28;20603;-80
2023/10/03 09:00:47;;;;;;;6.80;4.40;;;26.40;90.80;;;;;;5087194;28;20563;-76
2023/10/03 09:03:15;;;;;;;4.23;3.30;;;26.10;91.00;;;;;;5084943;28;20936;-80
2023/10/03 09:05:41;;;;;;;11.33;4.33;;;25.80;91.40;;;;;;5099723;28;20568;-76
2023/10/03 09:08:15;;;;;;;6.40;4.27;;;25.60;92.50;;;;;;5095020;28;20945;-76
2023/10/03 09:10:51;;;;;;;6.03;3.50;;;25.50;91.70;;;;;;5092843;28;20547;-76
2023/10/03 09:13:25;;;;;;;5.80;4.10;;;25.30;92.70;;;;;;5096442;28;21569;-79
2023/10/03 09:16:15;;;;;;;6.50;4.20;;;25.30;91.80;;;;;;5106559;27;21113;-80
2023/10/03 09:18:41;;;;;;;7.40;4.80;;;25.20;91.90;;;;;;5088500;28;20774;-79
2023/10/03 09:21:15;;;;;;;6.10;3.70;;;25.10;91.90;;;;;;5090450;28;21049;-80
2023/10/03 09:24:20;;;;;;;7.07;3.93;;;25.10;92.40;;;;;;5094452;28;20509;-80
2023/10/03 09:26:46;;;;;;;5.57;3.50;;;25.10;92.00;;;;;;5098162;28;20944;-80
2023/10/03 09:29:18;;;;;;;5.33;3.83;;;25.00;92.30;;;;;;5088579;28;20405;-76
2023/10/03 09:31:50;;;;;;;5.80;3.13;;;25.10;92.60;;;;;;5092423;28;20933;-76
2023/10/03 09:34:16;;;;;;;5.83;3.73;;;25.20;92.10;;;;;;5086381;28;20438;-76
2023/10/03 09:36:42;;;;;;;6.57;3.20;;;25.50;92.10;;;;;;5084648;28;20811;-80
2023/10/03 09:39:08;;;;;;;6.07;4.90;;;25.70;92.00;;;;;;5084987;28;20232;-80
2023/10/03 09:41:38;;;;;;;3.80;3.30;;;26.00;91.80;;;;;;5092931;28;20461;-79
2023/10/03 09:44:05;;;;;;;9.03;3.83;;;26.30;91.50;;;;;;5089781;28;20532;-79
2023/10/03 09:46:40;;;;;;;4.70;2.90;;;26.30;91.20;;;;;;5094996;28;20913;-79
2023/10/03 09:49:09;;;;;;;6.00;3.23;;;26.30;91.20;;;;;;5083622;28;20433;-76
2023/10/03 09:51:51;;;;;;;4.73;2.80;;;26.10;91.30;;;;;;5089782;28;20949;-80
2023/10/03 09:54:35;;;;;;;5.30;3.83;;;26.00;91.40;;;;;;5088703;28;20439;-75
2023/10/03 09:57:01;;;;;;;3.63;2.93;;;25.80;91.20;;;;;;5084484;28;20810;-76
2023/10/03 09:59:32;;;;;;;4.00;2.80;;;25.70;91.40;;;;;;5092986;28;20471;-76
2023/10/03 10:01:59;;;;;;;6.43;3.43;;;25.60;91.30;;;;;;5091274;28;20654;-76
2023/10/03 10:04:27;;;;;;;9.10;6.20;;;25.60;91.80;;;;;;5083545;28;20453;-76
2023/10/03 10:07:16;;;;;;;5.73;3.30;;;25.50;91.80;;;;;;5088823;28;20645;-80
2023/10/03 10:10:19;;;;;;;6.33;3.70;;;25.40;92.00;;;;;;5082539;28;20514;-79
2023/10/03 10:13:22;;;;;;;5.30;3.80;;;25.30;92.30;;;;;;5062005;28;20439;-76
2023/10/03 10:16:13;;;;;;;4.90;3.37;;;25.30;91.90;;;;;;5089656;28;20495;-80
2023/10/03 10:18:45;;;;;;;5.00;3.30;;;25.30;91.80;;;;;;5078751;28;20733;-76
2023/10/03 10:21:36;;;;;;;4.50;3.10;;;25.20;92.10;;;;;;5099401;28;20510;-79
2023/10/03 10:24:15;;;;;;;6.27;3.70;;;25.10;92.30;;;;;;5093530;28;20984;-79
2023/10/03 10:26:48;;;;;;;9.00;3.80;;;25.10;92.40;;;;;;5091877;28;20412;-76
2023/10/03 10:29:19;;;;;;;8.87;4.47;;;25.10;92.40;;;;;;5089480;28;20497;-76
2023/10/03 10:31:49;;;;;;;5.80;3.63;;;25.10;92.90;;;;;;5089497;28;20523;-80
2023/10/03 10:34:21;;;;;;;6.87;3.33;;;25.10;92.20;;;;;;5088107;28;20464;-76
2023/10/03 10:37:02;;;;;;;4.70;3.57;;;25.10;92.60;;;;;;5097411;28;20431;-80
2023/10/03 10:39:53;;;;;;;7.70;3.47;;;25.10;92.40;;;;;;5091193;27;20564;-76
2023/10/03 10:42:25;;;;;;;8.20;3.23;;;25.10;92.20;;;;;;5093033;28;20473;-76
2023/10/03 10:45:13;;;;;;;4.60;3.13;;;25.10;92.90;;;;;;5084889;28;20754;-80
2023/10/03 10:47:50;;;;;;;7.40;3.87;;;25.10;92.50;;;;;;5087810;28;20514;-75
2023/10/03 10:50:25;;;;;;;4.90;3.80;;;25.00;92.50;;;;;;5084588;28;20487;-76
2023/10/03 10:53:02;;;;;;;4.60;3.33;;;25.00;92.50;;;;;;5086470;28;20456;-80
2023/10/03 10:55:29;;;;;;;6.30;3.33;;;25.00;92.30;;;;;;5096065;28;20465;-76
2023/10/03 10:58:12;;;;;;;5.77;3.80;;;25.00;92.40;;;;;;5089795;28;20670;-80
2023/10/03 11:00:38;;;;;;;3.77;2.93;;;25.00;92.30;;;;;;5085102;28;20469;-80
2023/10/03 11:03:06;;;;;;;5.23;4.00;;;25.00;92.60;;;;;;5083504;28;20441;-80
2023/10/03 11:05:50;;;;;;;5.90;3.50;;;25.00;92.40;;;;;;5086664;28;21018;-80
2023/10/03 11:08:19;;;;;;;7.10;3.87;;;25.10;92.60;;;;;;5089290;28;20432;-76
2023/10/03 11:10:53;;;;;;;6.10;3.27;;;25.20;92.60;;;;;;5086266;28;20437;-80
2023/10/03 11:13:22;;;;;;;6.23;3.77;;;25.20;92.20;;;;;;5088663;28;20519;-80
2023/10/03 11:15:48;;;;;;;4.00;2.73;;;25.20;92.20;;;;;;5091219;28;20548;-76
2023/10/03 11:18:15;;;;;;;14.70;3.80;;;25.30;92.40;;;;;;5101471;28;21105;-76
2023/10/03 11:20:40;;;;;;;4.00;3.07;;;25.30;92.40;;;;;;5097827;28;20233;-77
2023/10/03 11:23:18;;;;;;;5.30;3.40;;;25.30;92.70;;;;;;5099249;28;20964;-80
2023/10/03 11:25:57;;;;;;;5.10;3.43;;;25.40;92.30;;;;;;5090572;27;20194;-80
2023/10/03 11:28:24;;;;;;;11.47;4.03;;;25.50;91.90;;;;;;5091471;28;20641;-78
2023/10/03 11:31:06;;;;;;;4.40;2.97;;;25.40;92.00;;;;;;5086954;28;20450;-77
2023/10/03 11:33:45;;;;;;;6.10;3.63;;;25.30;91.90;;;;;;5088861;28;20497;-79
2023/10/03 11:36:12;;;;;;;6.80;3.10;;;25.30;92.60;;;;;;5087567;28;20909;-79
2023/10/03 11:38:47;;;;;;;7.00;3.30;;;25.40;92.20;;;;;;5080903;28;20471;-79
2023/10/03 11:41:13;;;;;;;6.40;4.10;;;25.40;92.10;;;;;;5083141;28;21096;-76
2023/10/03 11:43:49;;;;;;;6.73;3.30;;;25.50;91.40;;;;;;5085089;28;20574;-76
2023/10/03 11:46:15;;;;;;;7.10;3.23;;;25.50;91.70;;;;;;5086077;28;20684;-76
2023/10/03 11:48:41;;;;;;;5.37;3.23;;;25.40;91.60;;;;;;5083312;28;20436;-80
2023/10/03 11:51:07;;;;;;;5.73;3.70;;;25.50;92.30;;;;;;5085345;28;20974;-76
2023/10/03 11:53:33;;;;;;;4.70;2.87;;;25.50;91.60;;;;;;5097537;28;20192;-76
2023/10/03 11:55:58;;;;;;;3.83;3.07;;;25.50;91.60;;;;;;5084131;28;20506;-80
2023/10/03 11:58:24;;;;;;;7.03;3.70;;;25.50;91.80;;;;;;5098945;28;20306;-80
2023/10/03 12:00:51;;;;;;;6.30;3.43;;;25.60;91.90;;;;;;5091531;28;20220;-79
2023/10/03 12:03:17;;;;;;;4.83;3.30;;;25.60;91.40;;;;;;5089867;28;20461;-76
2023/10/03 12:05:45;;;;;;;5.63;3.90;;;25.60;91.50;;;;;;5091246;28;20486;-76
2023/10/03 12:08:11;;;;;;;5.77;3.47;;;25.60;91.30;;;;;;5088051;28;20466;-76
2023/10/03 12:10:40;;;;;;;6.30;3.37;;;25.60;91.50;;;;;;5092168;28;20448;-79
2023/10/03 12:13:06;;;;;;;7.27;4.20;;;25.60;91.80;;;;;;5111453;28;20594;-80
2023/10/03 12:15:32;;;;;;;5.20;3.40;;;25.60;91.50;;;;;;5096849;28;20472;-80
2023/10/03 12:17:58;;;;;;;5.83;3.40;;;25.70;91.50;;;;;;5108964;27;20274;-76
2023/10/03 12:20:24;;;;;;;7.03;3.90;;;25.70;91.50;;;;;;5098276;28;20431;-77
2023/10/03 12:22:54;;;;;;;6.20;2.90;;;25.70;91.60;;;;;;5092720;28;20725;-80
2023/10/03 12:25:23;;;;;;;4.50;2.90;;;25.70;91.40;;;;;;5095951;28;20210;-79
2023/10/03 12:27:49;;;;;;;5.50;3.30;;;25.70;91.40;;;;;;5089047;28;20444;-77
2023/10/03 12:30:17;;;;;;;5.93;4.27;;;25.70;91.50;;;;;;5091306;28;20444;-77
2023/10/03 12:32:46;;;;;;;5.17;3.30;;;25.70;91.50;;;;;;5092824;28;20429;-76
2023/10/03 12:35:12;;;;;;;4.53;2.83;;;25.70;91.70;;;;;;5084761;28;20436;-80
2023/10/03 12:37:39;;;;;;;5.30;3.60;;;25.80;91.60;;;;;;5100028;28;20843;-80
2023/10/03 12:40:13;;;;;;;7.63;3.80;;;25.80;91.70;;;;;;5092086;28;20862;-80
2023/10/03 12:42:43;;;;;;;6.03;3.80;;;25.80;91.50;;;;;;5102658;28;20869;-76
2023/10/03 12:45:15;;;;;;;5.97;3.47;;;25.80;91.30;;;;;;5092541;28;21032;-80
2023/10/03 12:47:46;;;;;;;4.30;3.10;;;25.80;91.40;;;;;;5094224;28;20452;-76
2023/10/03 12:50:16;;;;;;;4.70;2.67;;;25.80;91.50;;;;;;5090260;28;21074;-76